Bois-Des-Filion, Canada
Current Conditions -  °F | °C
As of 9:00 PM on Tuesday 21 Oct 2014 (Local Time) from CYUL Reporting Station
Broken Clouds Broken Clouds  
Wind Chill: 38°   Ceiling: 5000
Heat Index: 45°   Visibility: 15mi
Dew Point: 34°   Wind: 15mph
Humidity: 66%   Direction: 30°NNE
Pressure: 30.14"   Gusts: 24mph
Location:  45.65°N, 73.77°W
Report Text: CYUL 220100Z 03013G21KT 15SM FEW030 BKN050 BKN065 07/01 A3014 RMK SC1SC5SC2 SC TR SLP208
Loading
Personal Weather Stations






























Interactive Weather Map
Tropical Storm Tracking
New forecast layout! Learn more

10-Day Weather Forecast

Advertisements
Track Severe Weather on mobile